sensor_id;sensor_type;location;lat;lon;timestamp;P1;durP1;ratioP1;P2;durP2;ratioP2
54458;SDS011;40368;49.350;8.152;2024-02-14T00:00:44;18;;;31;;
54458;SDS011;40368;49.350;8.152;2024-02-14T00:01:44;19;;;35;;
54458;SDS011;40368;49.350;8.152;2024-02-14T00:02:44;19;;;48;;
54458;SDS011;40368;49.350;8.152;2024-02-14T00:03:44;22;;;58;;
54458;SDS011;40368;49.350;8.152;2024-02-14T00:04:44;18;;;34;;
54458;SDS011;40368;49.350;8.152;2024-02-14T00:05:44;21;;;54;;
54458;SDS011;40368;49.350;8.152;2024-02-14T00:06:44;21;;;47;;
54458;SDS011;40368;49.350;8.152;2024-02-14T00:07:45;19;;;35;;
54458;SDS011;40368;49.350;8.152;2024-02-14T00:08:44;18;;;36;;
54458;SDS011;40368;49.350;8.152;2024-02-14T00:09:44;18;;;49;;
54458;SDS011;40368;49.350;8.152;2024-02-14T00:10:44;21;;;43;;
54458;SDS011;40368;49.350;8.152;2024-02-14T00:11:44;19;;;41;;
54458;SDS011;40368;49.350;8.152;2024-02-14T00:12:44;23;;;76;;
54458;SDS011;40368;49.350;8.152;2024-02-14T00:13:44;23;;;36;;
54458;SDS011;40368;49.350;8.152;2024-02-14T00:14:44;20;;;31;;
54458;SDS011;40368;49.350;8.152;2024-02-14T00:15:44;20;;;36;;
54458;SDS011;40368;49.350;8.152;2024-02-14T00:16:44;19;;;57;;
54458;SDS011;40368;49.350;8.152;2024-02-14T00:17:44;21;;;37;;
54458;SDS011;40368;49.350;8.152;2024-02-14T00:18:43;21;;;46;;
54458;SDS011;40368;49.350;8.152;2024-02-14T00:19:44;24;;;68;;
54458;SDS011;40368;49.350;8.152;2024-02-14T00:20:44;21;;;42;;
54458;SDS011;40368;49.350;8.152;2024-02-14T00:21:43;25;;;62;;
54458;SDS011;40368;49.350;8.152;2024-02-14T00:22:44;25;;;68;;
54458;SDS011;40368;49.350;8.152;2024-02-14T00:23:43;28;;;64;;
54458;SDS011;40368;49.350;8.152;2024-02-14T00:24:43;25;;;50;;
54458;SDS011;40368;49.350;8.152;2024-02-14T00:25:44;31;;;58;;
54458;SDS011;40368;49.350;8.152;2024-02-14T00:26:44;29;;;72;;
54458;SDS011;40368;49.350;8.152;2024-02-14T00:27:43;28;;;53;;
54458;SDS011;40368;49.350;8.152;2024-02-14T00:28:44;33;;;75;;
54458;SDS011;40368;49.350;8.152;2024-02-14T00:29:44;29;;;59;;
54458;SDS011;40368;49.350;8.152;2024-02-14T00:30:43;31;;;71;;
54458;SDS011;40368;49.350;8.152;2024-02-14T00:31:44;31;;;62;;
54458;SDS011;40368;49.350;8.152;2024-02-14T00:32:43;29;;;73;;
54458;SDS011;40368;49.350;8.152;2024-02-14T00:33:43;28;;;60;;
54458;SDS011;40368;49.350;8.152;2024-02-14T00:34:44;31;;;65;;
54458;SDS011;40368;49.350;8.152;2024-02-14T00:35:44;30;;;55;;
54458;SDS011;40368;49.350;8.152;2024-02-14T00:36:44;33;;;50;;
54458;SDS011;40368;49.350;8.152;2024-02-14T00:37:43;31;;;59;;
54458;SDS011;40368;49.350;8.152;2024-02-14T00:38:44;32;;;59;;
54458;SDS011;40368;49.350;8.152;2024-02-14T00:39:44;31;;;60;;
54458;SDS011;40368;49.350;8.152;2024-02-14T00:40:43;30;;;72;;
54458;SDS011;40368;49.350;8.152;2024-02-14T00:41:45;32;;;86;;
54458;SDS011;40368;49.350;8.152;2024-02-14T00:42:43;36;;;67;;
54458;SDS011;40368;49.350;8.152;2024-02-14T00:43:44;33;;;61;;
54458;SDS011;40368;49.350;8.152;2024-02-14T00:44:44;32;;;69;;
54458;SDS011;40368;49.350;8.152;2024-02-14T00:45:43;30;;;68;;
54458;SDS011;40368;49.350;8.152;2024-02-14T00:46:44;32;;;61;;
54458;SDS011;40368;49.350;8.152;2024-02-14T00:47:44;31;;;56;;
54458;SDS011;40368;49.350;8.152;2024-02-14T00:48:44;31;;;74;;
54458;SDS011;40368;49.350;8.152;2024-02-14T00:49:43;29;;;57;;
54458;SDS011;40368;49.350;8.152;2024-02-14T00:50:43;36;;;75;;
54458;SDS011;40368;49.350;8.152;2024-02-14T00:51:44;34;;;70;;
54458;SDS011;40368;49.350;8.152;2024-02-14T00:52:43;31;;;70;;
54458;SDS011;40368;49.350;8.152;2024-02-14T00:53:44;31;;;74;;
54458;SDS011;40368;49.350;8.152;2024-02-14T00:54:44;30;;;63;;
54458;SDS011;40368;49.350;8.152;2024-02-14T00:55:44;27;;;57;;
54458;SDS011;40368;49.350;8.152;2024-02-14T00:56:44;27;;;66;;
54458;SDS011;40368;49.350;8.152;2024-02-14T00:57:43;26;;;58;;
54458;SDS011;40368;49.350;8.152;2024-02-14T00:58:44;27;;;65;;
54458;SDS011;40368;49.350;8.152;2024-02-14T00:59:44;27;;;67;;
54458;SDS011;40368;49.350;8.152;2024-02-14T01:00:44;24;;;55;;
54458;SDS011;40368;49.350;8.152;2024-02-14T01:01:44;24;;;49;;
54458;SDS011;40368;49.350;8.152;2024-02-14T01:02:44;24;;;54;;
54458;SDS011;40368;49.350;8.152;2024-02-14T01:03:44;22;;;54;;
54458;SDS011;40368;49.350;8.152;2024-02-14T01:04:44;23;;;40;;
54458;SDS011;40368;49.350;8.152;2024-02-14T01:05:44;30;;;63;;
54458;SDS011;40368;49.350;8.152;2024-02-14T01:06:44;30;;;74;;
54458;SDS011;40368;49.350;8.152;2024-02-14T01:07:44;28;;;51;;
54458;SDS011;40368;49.350;8.152;2024-02-14T01:08:44;27;;;61;;
54458;SDS011;40368;49.350;8.152;2024-02-14T01:09:43;25;;;63;;
54458;SDS011;40368;49.350;8.152;2024-02-14T01:10:44;25;;;42;;
54458;SDS011;40368;49.350;8.152;2024-02-14T01:11:44;28;;;71;;
54458;SDS011;40368;49.350;8.152;2024-02-14T01:12:44;29;;;46;;
54458;SDS011;40368;49.350;8.152;2024-02-14T01:13:43;29;;;59;;
54458;SDS011;40368;49.350;8.152;2024-02-14T01:14:44;29;;;67;;
54458;SDS011;40368;49.350;8.152;2024-02-14T01:15:44;28;;;64;;
54458;SDS011;40368;49.350;8.152;2024-02-14T01:16:44;27;;;65;;
54458;SDS011;40368;49.350;8.152;2024-02-14T01:17:44;29;;;52;;
54458;SDS011;40368;49.350;8.152;2024-02-14T01:18:44;28;;;76;;
54458;SDS011;40368;49.350;8.152;2024-02-14T01:19:44;30;;;64;;
54458;SDS011;40368;49.350;8.152;2024-02-14T01:20:44;32;;;55;;
54458;SDS011;40368;49.350;8.152;2024-02-14T01:21:44;31;;;78;;
54458;SDS011;40368;49.350;8.152;2024-02-14T01:22:43;34;;;65;;
54458;SDS011;40368;49.350;8.152;2024-02-14T01:23:44;42;;;91;;
54458;SDS011;40368;49.350;8.152;2024-02-14T01:24:44;30;;;67;;
54458;SDS011;40368;49.350;8.152;2024-02-14T01:25:43;28;;;65;;
54458;SDS011;40368;49.350;8.152;2024-02-14T01:26:44;30;;;66;;
54458;SDS011;40368;49.350;8.152;2024-02-14T01:27:44;31;;;62;;
54458;SDS011;40368;49.350;8.152;2024-02-14T01:28:44;28;;;60;;
54458;SDS011;40368;49.350;8.152;2024-02-14T01:29:45;29;;;67;;
54458;SDS011;40368;49.350;8.152;2024-02-14T01:30:44;27;;;64;;
54458;SDS011;40368;49.350;8.152;2024-02-14T01:31:44;27;;;67;;
54458;SDS011;40368;49.350;8.152;2024-02-14T01:32:43;31;;;69;;
54458;SDS011;40368;49.350;8.152;2024-02-14T01:33:44;29;;;55;;
54458;SDS011;40368;49.350;8.152;2024-02-14T01:34:44;30;;;87;;
54458;SDS011;40368;49.350;8.152;2024-02-14T01:35:44;26;;;52;;
54458;SDS011;40368;49.350;8.152;2024-02-14T01:36:44;39;;;76;;
54458;SDS011;40368;49.350;8.152;2024-02-14T01:37:43;32;;;74;;
54458;SDS011;40368;49.350;8.152;2024-02-14T01:38:44;33;;;84;;
54458;SDS011;40368;49.350;8.152;2024-02-14T01:39:44;31;;;59;;
54458;SDS011;40368;49.350;8.152;2024-02-14T01:40:44;26;;;65;;
54458;SDS011;40368;49.350;8.152;2024-02-14T01:41:44;30;;;75;;
54458;SDS011;40368;49.350;8.152;2024-02-14T01:42:44;31;;;68;;
54458;SDS011;40368;49.350;8.152;2024-02-14T01:43:44;30;;;70;;
54458;SDS011;40368;49.350;8.152;2024-02-14T01:44:44;31;;;61;;
54458;SDS011;40368;49.350;8.152;2024-02-14T01:45:44;28;;;97;;
54458;SDS011;40368;49.350;8.152;2024-02-14T01:46:47;29;;;64;;
54458;SDS011;40368;49.350;8.152;2024-02-14T01:47:44;28;;;50;;
54458;SDS011;40368;49.350;8.152;2024-02-14T01:48:46;33;;;64;;
54458;SDS011;40368;49.350;8.152;2024-02-14T01:49:44;48;;;94;;
54458;SDS011;40368;49.350;8.152;2024-02-14T01:50:46;33;;;72;;
54458;SDS011;40368;49.350;8.152;2024-02-14T01:51:44;31;;;58;;
54458;SDS011;40368;49.350;8.152;2024-02-14T01:52:44;30;;;84;;
54458;SDS011;40368;49.350;8.152;2024-02-14T01:53:44;32;;;80;;
54458;SDS011;40368;49.350;8.152;2024-02-14T01:54:44;34;;;74;;
54458;SDS011;40368;49.350;8.152;2024-02-14T01:55:43;31;;;72;;
54458;SDS011;40368;49.350;8.152;2024-02-14T01:56:44;32;;;60;;
54458;SDS011;40368;49.350;8.152;2024-02-14T01:57:44;29;;;65;;
54458;SDS011;40368;49.350;8.152;2024-02-14T01:58:43;33;;;69;;
54458;SDS011;40368;49.350;8.152;2024-02-14T01:59:44;34;;;64;;
54458;SDS011;40368;49.350;8.152;2024-02-14T02:00:44;30;;;56;;
54458;SDS011;40368;49.350;8.152;2024-02-14T02:01:44;28;;;72;;
54458;SDS011;40368;49.350;8.152;2024-02-14T02:02:44;25;;;54;;
54458;SDS011;40368;49.350;8.152;2024-02-14T02:03:44;26;;;72;;
54458;SDS011;40368;49.350;8.152;2024-02-14T02:04:44;23;;;51;;
54458;SDS011;40368;49.350;8.152;2024-02-14T02:05:44;25;;;61;;
54458;SDS011;40368;49.350;8.152;2024-02-14T02:06:44;25;;;61;;
54458;SDS011;40368;49.350;8.152;2024-02-14T02:07:44;28;;;73;;
54458;SDS011;40368;49.350;8.152;2024-02-14T02:08:44;25;;;63;;
54458;SDS011;40368;49.350;8.152;2024-02-14T02:09:44;25;;;52;;
54458;SDS011;40368;49.350;8.152;2024-02-14T02:10:43;28;;;63;;
54458;SDS011;40368;49.350;8.152;2024-02-14T02:11:45;28;;;62;;
54458;SDS011;40368;49.350;8.152;2024-02-14T02:12:44;27;;;46;;
54458;SDS011;40368;49.350;8.152;2024-02-14T02:13:44;29;;;78;;
54458;SDS011;40368;49.350;8.152;2024-02-14T02:14:44;25;;;48;;
54458;SDS011;40368;49.350;8.152;2024-02-14T02:15:44;33;;;62;;
54458;SDS011;40368;49.350;8.152;2024-02-14T02:16:44;32;;;71;;
54458;SDS011;40368;49.350;8.152;2024-02-14T02:17:43;31;;;66;;
54458;SDS011;40368;49.350;8.152;2024-02-14T02:18:43;30;;;61;;
54458;SDS011;40368;49.350;8.152;2024-02-14T02:19:44;31;;;62;;
54458;SDS011;40368;49.350;8.152;2024-02-14T02:20:44;31;;;65;;
54458;SDS011;40368;49.350;8.152;2024-02-14T02:21:44;34;;;62;;
54458;SDS011;40368;49.350;8.152;2024-02-14T02:22:45;32;;;63;;
54458;SDS011;40368;49.350;8.152;2024-02-14T02:23:44;33;;;73;;
54458;SDS011;40368;49.350;8.152;2024-02-14T02:24:44;33;;;62;;
54458;SDS011;40368;49.350;8.152;2024-02-14T02:25:43;33;;;81;;
54458;SDS011;40368;49.350;8.152;2024-02-14T02:26:43;29;;;62;;
54458;SDS011;40368;49.350;8.152;2024-02-14T02:27:44;36;;;75;;
54458;SDS011;40368;49.350;8.152;2024-02-14T02:28:44;36;;;90;;
54458;SDS011;40368;49.350;8.152;2024-02-14T02:29:44;35;;;74;;
54458;SDS011;40368;49.350;8.152;2024-02-14T02:30:44;37;;;79;;
54458;SDS011;40368;49.350;8.152;2024-02-14T02:31:44;30;;;79;;
54458;SDS011;40368;49.350;8.152;2024-02-14T02:32:44;29;;;71;;
54458;SDS011;40368;49.350;8.152;2024-02-14T02:33:44;33;;;74;;
54458;SDS011;40368;49.350;8.152;2024-02-14T02:34:44;30;;;63;;
54458;SDS011;40368;49.350;8.152;2024-02-14T02:35:44;33;;;55;;
54458;SDS011;40368;49.350;8.152;2024-02-14T02:36:44;33;;;58;;
54458;SDS011;40368;49.350;8.152;2024-02-14T02:37:43;32;;;65;;
54458;SDS011;40368;49.350;8.152;2024-02-14T02:38:44;29;;;55;;
54458;SDS011;40368;49.350;8.152;2024-02-14T02:39:44;32;;;68;;
54458;SDS011;40368;49.350;8.152;2024-02-14T02:40:44;33;;;77;;
54458;SDS011;40368;49.350;8.152;2024-02-14T02:41:43;31;;;65;;
54458;SDS011;40368;49.350;8.152;2024-02-14T02:42:43;37;;;82;;
54458;SDS011;40368;49.350;8.152;2024-02-14T02:43:44;36;;;70;;
54458;SDS011;40368;49.350;8.152;2024-02-14T02:44:45;33;;;70;;
54458;SDS011;40368;49.350;8.152;2024-02-14T02:45:43;38;;;68;;
54458;SDS011;40368;49.350;8.152;2024-02-14T02:46:44;36;;;94;;
54458;SDS011;40368;49.350;8.152;2024-02-14T02:47:44;33;;;62;;
54458;SDS011;40368;49.350;8.152;2024-02-14T02:48:44;36;;;73;;
54458;SDS011;40368;49.350;8.152;2024-02-14T02:49:44;41;;;95;;
54458;SDS011;40368;49.350;8.152;2024-02-14T02:50:44;39;;;77;;
54458;SDS011;40368;49.350;8.152;2024-02-14T02:51:44;41;;;71;;
54458;SDS011;40368;49.350;8.152;2024-02-14T02:52:44;41;;;89;;
54458;SDS011;40368;49.350;8.152;2024-02-14T02:53:44;40;;;87;;
54458;SDS011;40368;49.350;8.152;2024-02-14T02:54:43;42;;;102;;
54458;SDS011;40368;49.350;8.152;2024-02-14T02:55:44;42;;;79;;
54458;SDS011;40368;49.350;8.152;2024-02-14T02:56:44;41;;;76;;
54458;SDS011;40368;49.350;8.152;2024-02-14T02:57:44;38;;;87;;
54458;SDS011;40368;49.350;8.152;2024-02-14T02:58:44;38;;;90;;
54458;SDS011;40368;49.350;8.152;2024-02-14T02:59:44;38;;;66;;
54458;SDS011;40368;49.350;8.152;2024-02-14T03:00:44;32;;;66;;
54458;SDS011;40368;49.350;8.152;2024-02-14T03:01:44;31;;;65;;
54458;SDS011;40368;49.350;8.152;2024-02-14T03:02:43;30;;;54;;
54458;SDS011;40368;49.350;8.152;2024-02-14T03:03:44;28;;;49;;
54458;SDS011;40368;49.350;8.152;2024-02-14T03:04:44;28;;;71;;
54458;SDS011;40368;49.350;8.152;2024-02-14T03:05:44;30;;;66;;
54458;SDS011;40368;49.350;8.152;2024-02-14T03:06:44;22;;;38;;
54458;SDS011;40368;49.350;8.152;2024-02-14T03:07:44;21;;;49;;
54458;SDS011;40368;49.350;8.152;2024-02-14T03:08:44;21;;;45;;
54458;SDS011;40368;49.350;8.152;2024-02-14T03:09:44;21;;;46;;
54458;SDS011;40368;49.350;8.152;2024-02-14T03:10:43;26;;;48;;
54458;SDS011;40368;49.350;8.152;2024-02-14T03:11:45;25;;;51;;
54458;SDS011;40368;49.350;8.152;2024-02-14T03:12:44;26;;;70;;
54458;SDS011;40368;49.350;8.152;2024-02-14T03:13:44;24;;;69;;
54458;SDS011;40368;49.350;8.152;2024-02-14T03:14:44;21;;;42;;
54458;SDS011;40368;49.350;8.152;2024-02-14T03:15:44;24;;;64;;
54458;SDS011;40368;49.350;8.152;2024-02-14T03:16:44;21;;;40;;
54458;SDS011;40368;49.350;8.152;2024-02-14T03:17:44;25;;;78;;
54458;SDS011;40368;49.350;8.152;2024-02-14T03:18:44;20;;;46;;
54458;SDS011;40368;49.350;8.152;2024-02-14T03:19:44;21;;;43;;
54458;SDS011;40368;49.350;8.152;2024-02-14T03:20:44;20;;;37;;
54458;SDS011;40368;49.350;8.152;2024-02-14T03:21:43;24;;;57;;
54458;SDS011;40368;49.350;8.152;2024-02-14T03:22:44;20;;;39;;
54458;SDS011;40368;49.350;8.152;2024-02-14T03:23:43;21;;;49;;
54458;SDS011;40368;49.350;8.152;2024-02-14T03:24:44;21;;;40;;
54458;SDS011;40368;49.350;8.152;2024-02-14T03:25:44;20;;;42;;
54458;SDS011;40368;49.350;8.152;2024-02-14T03:26:44;20;;;45;;
54458;SDS011;40368;49.350;8.152;2024-02-14T03:27:44;21;;;56;;
54458;SDS011;40368;49.350;8.152;2024-02-14T03:28:44;19;;;41;;
54458;SDS011;40368;49.350;8.152;2024-02-14T03:29:44;21;;;45;;
54458;SDS011;40368;49.350;8.152;2024-02-14T03:30:44;20;;;56;;
54458;SDS011;40368;49.350;8.152;2024-02-14T03:31:44;19;;;44;;
54458;SDS011;40368;49.350;8.152;2024-02-14T03:32:44;20;;;44;;
54458;SDS011;40368;49.350;8.152;2024-02-14T03:33:44;23;;;33;;
54458;SDS011;40368;49.350;8.152;2024-02-14T03:34:43;22;;;53;;
54458;SDS011;40368;49.350;8.152;2024-02-14T03:35:43;24;;;62;;
54458;SDS011;40368;49.350;8.152;2024-02-14T03:36:44;24;;;44;;
54458;SDS011;40368;49.350;8.152;2024-02-14T03:37:45;25;;;44;;
54458;SDS011;40368;49.350;8.152;2024-02-14T03:38:43;25;;;45;;
54458;SDS011;40368;49.350;8.152;2024-02-14T03:39:44;27;;;54;;
54458;SDS011;40368;49.350;8.152;2024-02-14T03:40:43;28;;;76;;
54458;SDS011;40368;49.350;8.152;2024-02-14T03:41:44;27;;;56;;
54458;SDS011;40368;49.350;8.152;2024-02-14T03:42:44;28;;;56;;
54458;SDS011;40368;49.350;8.152;2024-02-14T03:43:44;28;;;71;;
54458;SDS011;40368;49.350;8.152;2024-02-14T03:44:44;29;;;70;;
54458;SDS011;40368;49.350;8.152;2024-02-14T03:45:44;28;;;75;;
54458;SDS011;40368;49.350;8.152;2024-02-14T03:46:43;29;;;63;;
54458;SDS011;40368;49.350;8.152;2024-02-14T03:47:44;32;;;86;;
54458;SDS011;40368;49.350;8.152;2024-02-14T03:48:43;27;;;56;;
54458;SDS011;40368;49.350;8.152;2024-02-14T03:49:44;25;;;59;;
54458;SDS011;40368;49.350;8.152;2024-02-14T03:50:43;24;;;49;;
54458;SDS011;40368;49.350;8.152;2024-02-14T03:51:43;28;;;59;;
54458;SDS011;40368;49.350;8.152;2024-02-14T03:52:44;25;;;46;;
54458;SDS011;40368;49.350;8.152;2024-02-14T03:53:44;24;;;62;;
54458;SDS011;40368;49.350;8.152;2024-02-14T03:54:44;25;;;60;;
54458;SDS011;40368;49.350;8.152;2024-02-14T03:55:43;25;;;81;;
54458;SDS011;40368;49.350;8.152;2024-02-14T03:56:43;22;;;42;;
54458;SDS011;40368;49.350;8.152;2024-02-14T03:57:44;22;;;40;;
54458;SDS011;40368;49.350;8.152;2024-02-14T03:58:44;21;;;41;;
54458;SDS011;40368;49.350;8.152;2024-02-14T03:59:44;23;;;47;;
54458;SDS011;40368;49.350;8.152;2024-02-14T04:00:44;30;;;71;;
54458;SDS011;40368;49.350;8.152;2024-02-14T04:01:44;25;;;43;;
54458;SDS011;40368;49.350;8.152;2024-02-14T04:02:43;23;;;50;;
54458;SDS011;40368;49.350;8.152;2024-02-14T04:03:44;22;;;49;;
54458;SDS011;40368;49.350;8.152;2024-02-14T04:04:43;21;;;49;;
54458;SDS011;40368;49.350;8.152;2024-02-14T04:05:44;20;;;38;;
54458;SDS011;40368;49.350;8.152;2024-02-14T04:06:44;21;;;50;;
54458;SDS011;40368;49.350;8.152;2024-02-14T04:07:43;22;;;40;;
54458;SDS011;40368;49.350;8.152;2024-02-14T04:08:43;20;;;53;;
54458;SDS011;40368;49.350;8.152;2024-02-14T04:09:44;21;;;47;;
54458;SDS011;40368;49.350;8.152;2024-02-14T04:10:43;22;;;55;;
54458;SDS011;40368;49.350;8.152;2024-02-14T04:11:43;22;;;49;;
54458;SDS011;40368;49.350;8.152;2024-02-14T04:12:44;22;;;49;;
54458;SDS011;40368;49.350;8.152;2024-02-14T04:13:43;22;;;38;;
54458;SDS011;40368;49.350;8.152;2024-02-14T04:14:43;21;;;47;;
54458;SDS011;40368;49.350;8.152;2024-02-14T04:15:44;20;;;48;;
54458;SDS011;40368;49.350;8.152;2024-02-14T04:16:44;20;;;53;;
54458;SDS011;40368;49.350;8.152;2024-02-14T04:17:44;18;;;42;;
54458;SDS011;40368;49.350;8.152;2024-02-14T04:18:44;24;;;54;;
54458;SDS011;40368;49.350;8.152;2024-02-14T04:19:44;17;;;44;;
54458;SDS011;40368;49.350;8.152;2024-02-14T04:20:44;20;;;43;;
54458;SDS011;40368;49.350;8.152;2024-02-14T04:21:44;22;;;49;;
54458;SDS011;40368;49.350;8.152;2024-02-14T04:22:44;24;;;56;;
54458;SDS011;40368;49.350;8.152;2024-02-14T04:23:44;24;;;44;;
54458;SDS011;40368;49.350;8.152;2024-02-14T04:24:44;23;;;37;;
54458;SDS011;40368;49.350;8.152;2024-02-14T04:25:44;24;;;56;;
54458;SDS011;40368;49.350;8.152;2024-02-14T04:26:44;24;;;50;;
54458;SDS011;40368;49.350;8.152;2024-02-14T04:27:43;22;;;49;;
54458;SDS011;40368;49.350;8.152;2024-02-14T04:28:44;23;;;48;;
54458;SDS011;40368;49.350;8.152;2024-02-14T04:29:45;25;;;46;;
54458;SDS011;40368;49.350;8.152;2024-02-14T04:30:43;27;;;56;;
54458;SDS011;40368;49.350;8.152;2024-02-14T04:31:43;22;;;39;;
54458;SDS011;40368;49.350;8.152;2024-02-14T04:32:44;23;;;63;;
54458;SDS011;40368;49.350;8.152;2024-02-14T04:33:43;21;;;41;;
54458;SDS011;40368;49.350;8.152;2024-02-14T04:34:43;26;;;61;;
54458;SDS011;40368;49.350;8.152;2024-02-14T04:35:44;22;;;48;;
54458;SDS011;40368;49.350;8.152;2024-02-14T04:36:44;25;;;59;;
54458;SDS011;40368;49.350;8.152;2024-02-14T04:37:43;23;;;47;;
54458;SDS011;40368;49.350;8.152;2024-02-14T04:38:44;23;;;58;;
54458;SDS011;40368;49.350;8.152;2024-02-14T04:39:44;21;;;45;;
54458;SDS011;40368;49.350;8.152;2024-02-14T04:40:44;26;;;57;;
54458;SDS011;40368;49.350;8.152;2024-02-14T04:41:43;24;;;47;;
54458;SDS011;40368;49.350;8.152;2024-02-14T04:42:44;24;;;51;;
54458;SDS011;40368;49.350;8.152;2024-02-14T04:43:44;23;;;52;;
54458;SDS011;40368;49.350;8.152;2024-02-14T04:44:43;25;;;52;;
54458;SDS011;40368;49.350;8.152;2024-02-14T04:45:44;25;;;50;;
54458;SDS011;40368;49.350;8.152;2024-02-14T04:46:43;20;;;53;;
54458;SDS011;40368;49.350;8.152;2024-02-14T04:47:43;22;;;50;;
54458;SDS011;40368;49.350;8.152;2024-02-14T04:48:44;23;;;63;;
54458;SDS011;40368;49.350;8.152;2024-02-14T04:49:44;24;;;45;;
54458;SDS011;40368;49.350;8.152;2024-02-14T04:50:43;23;;;51;;
54458;SDS011;40368;49.350;8.152;2024-02-14T04:51:44;20;;;50;;
54458;SDS011;40368;49.350;8.152;2024-02-14T04:52:43;23;;;60;;
54458;SDS011;40368;49.350;8.152;2024-02-14T04:53:44;23;;;63;;
54458;SDS011;40368;49.350;8.152;2024-02-14T04:54:43;26;;;60;;
54458;SDS011;40368;49.350;8.152;2024-02-14T04:55:43;23;;;55;;
54458;SDS011;40368;49.350;8.152;2024-02-14T04:56:44;23;;;51;;
54458;SDS011;40368;49.350;8.152;2024-02-14T04:57:44;21;;;43;;
54458;SDS011;40368;49.350;8.152;2024-02-14T04:58:43;23;;;56;;
54458;SDS011;40368;49.350;8.152;2024-02-14T04:59:44;24;;;52;;
54458;SDS011;40368;49.350;8.152;2024-02-14T05:00:44;25;;;58;;
54458;SDS011;40368;49.350;8.152;2024-02-14T05:01:44;22;;;55;;
54458;SDS011;40368;49.350;8.152;2024-02-14T05:02:44;21;;;51;;
54458;SDS011;40368;49.350;8.152;2024-02-14T05:03:44;25;;;49;;
54458;SDS011;40368;49.350;8.152;2024-02-14T05:04:44;19;;;31;;
54458;SDS011;40368;49.350;8.152;2024-02-14T05:05:44;24;;;54;;
54458;SDS011;40368;49.350;8.152;2024-02-14T05:06:43;22;;;60;;
54458;SDS011;40368;49.350;8.152;2024-02-14T05:07:44;21;;;35;;
54458;SDS011;40368;49.350;8.152;2024-02-14T05:08:43;16;;;27;;
54458;SDS011;40368;49.350;8.152;2024-02-14T05:09:44;16;;;38;;
54458;SDS011;40368;49.350;8.152;2024-02-14T05:10:44;23;;;56;;
54458;SDS011;40368;49.350;8.152;2024-02-14T05:11:44;20;;;51;;
54458;SDS011;40368;49.350;8.152;2024-02-14T05:12:44;22;;;43;;
54458;SDS011;40368;49.350;8.152;2024-02-14T05:13:44;24;;;57;;
54458;SDS011;40368;49.350;8.152;2024-02-14T05:14:44;15;;;33;;
54458;SDS011;40368;49.350;8.152;2024-02-14T05:15:44;19;;;59;;
54458;SDS011;40368;49.350;8.152;2024-02-14T05:16:44;16;;;33;;
54458;SDS011;40368;49.350;8.152;2024-02-14T05:17:44;19;;;48;;
54458;SDS011;40368;49.350;8.152;2024-02-14T05:18:43;14;;;31;;
54458;SDS011;40368;49.350;8.152;2024-02-14T05:19:44;17;;;43;;
54458;SDS011;40368;49.350;8.152;2024-02-14T05:20:44;25;;;86;;
54458;SDS011;40368;49.350;8.152;2024-02-14T05:21:43;17;;;32;;
54458;SDS011;40368;49.350;8.152;2024-02-14T05:22:44;16;;;30;;
54458;SDS011;40368;49.350;8.152;2024-02-14T05:23:43;17;;;40;;
54458;SDS011;40368;49.350;8.152;2024-02-14T05:24:43;16;;;40;;
54458;SDS011;40368;49.350;8.152;2024-02-14T05:25:44;17;;;39;;
54458;SDS011;40368;49.350;8.152;2024-02-14T05:26:43;17;;;27;;
54458;SDS011;40368;49.350;8.152;2024-02-14T05:27:43;17;;;45;;
54458;SDS011;40368;49.350;8.152;2024-02-14T05:28:44;16;;;58;;
54458;SDS011;40368;49.350;8.152;2024-02-14T05:29:44;17;;;46;;
54458;SDS011;40368;49.350;8.152;2024-02-14T05:30:43;16;;;30;;
54458;SDS011;40368;49.350;8.152;2024-02-14T05:31:44;15;;;31;;
54458;SDS011;40368;49.350;8.152;2024-02-14T05:32:43;18;;;44;;
54458;SDS011;40368;49.350;8.152;2024-02-14T05:33:44;17;;;62;;
54458;SDS011;40368;49.350;8.152;2024-02-14T05:34:43;17;;;29;;
54458;SDS011;40368;49.350;8.152;2024-02-14T05:35:43;15;;;53;;
54458;SDS011;40368;49.350;8.152;2024-02-14T05:36:44;14;;;28;;
54458;SDS011;40368;49.350;8.152;2024-02-14T05:37:43;16;;;33;;
54458;SDS011;40368;49.350;8.152;2024-02-14T05:38:44;16;;;42;;
54458;SDS011;40368;49.350;8.152;2024-02-14T05:39:44;17;;;38;;
54458;SDS011;40368;49.350;8.152;2024-02-14T05:40:43;16;;;36;;
54458;SDS011;40368;49.350;8.152;2024-02-14T05:41:44;19;;;46;;
54458;SDS011;40368;49.350;8.152;2024-02-14T05:42:44;16;;;36;;
54458;SDS011;40368;49.350;8.152;2024-02-14T05:43:43;18;;;51;;
54458;SDS011;40368;49.350;8.152;2024-02-14T05:44:44;17;;;31;;
54458;SDS011;40368;49.350;8.152;2024-02-14T05:45:43;20;;;39;;
54458;SDS011;40368;49.350;8.152;2024-02-14T05:46:44;18;;;37;;
54458;SDS011;40368;49.350;8.152;2024-02-14T05:47:44;20;;;70;;
54458;SDS011;40368;49.350;8.152;2024-02-14T05:48:43;18;;;48;;
54458;SDS011;40368;49.350;8.152;2024-02-14T05:49:44;20;;;87;;
54458;SDS011;40368;49.350;8.152;2024-02-14T05:50:44;17;;;30;;
54458;SDS011;40368;49.350;8.152;2024-02-14T05:51:43;17;;;42;;
54458;SDS011;40368;49.350;8.152;2024-02-14T05:52:44;17;;;35;;
54458;SDS011;40368;49.350;8.152;2024-02-14T05:53:43;19;;;39;;
54458;SDS011;40368;49.350;8.152;2024-02-14T05:54:43;15;;;33;;
54458;SDS011;40368;49.350;8.152;2024-02-14T05:55:44;17;;;33;;
54458;SDS011;40368;49.350;8.152;2024-02-14T05:56:44;16;;;32;;
54458;SDS011;40368;49.350;8.152;2024-02-14T05:57:44;14;;;29;;
54458;SDS011;40368;49.350;8.152;2024-02-14T05:58:44;18;;;40;;
54458;SDS011;40368;49.350;8.152;2024-02-14T05:59:44;14;;;33;;
54458;SDS011;40368;49.350;8.152;2024-02-14T06:00:43;15;;;35;;
54458;SDS011;40368;49.350;8.152;2024-02-14T06:01:44;15;;;39;;
54458;SDS011;40368;49.350;8.152;2024-02-14T06:02:43;17;;;62;;
54458;SDS011;40368;49.350;8.152;2024-02-14T06:03:44;15;;;38;;
54458;SDS011;40368;49.350;8.152;2024-02-14T06:04:43;17;;;45;;
54458;SDS011;40368;49.350;8.152;2024-02-14T06:05:44;13;;;33;;
54458;SDS011;40368;49.350;8.152;2024-02-14T06:06:44;15;;;26;;
54458;SDS011;40368;49.350;8.152;2024-02-14T06:07:43;16;;;43;;
54458;SDS011;40368;49.350;8.152;2024-02-14T06:08:43;15;;;38;;
54458;SDS011;40368;49.350;8.152;2024-02-14T06:09:44;14;;;39;;
54458;SDS011;40368;49.350;8.152;2024-02-14T06:10:44;13;;;21;;
54458;SDS011;40368;49.350;8.152;2024-02-14T06:11:43;14;;;31;;
54458;SDS011;40368;49.350;8.152;2024-02-14T06:12:44;16;;;41;;
54458;SDS011;40368;49.350;8.152;2024-02-14T06:13:44;16;;;42;;
54458;SDS011;40368;49.350;8.152;2024-02-14T06:14:44;15;;;35;;
54458;SDS011;40368;49.350;8.152;2024-02-14T06:15:44;15;;;41;;
54458;SDS011;40368;49.350;8.152;2024-02-14T06:16:44;14;;;40;;
54458;SDS011;40368;49.350;8.152;2024-02-14T06:17:44;12;;;29;;
54458;SDS011;40368;49.350;8.152;2024-02-14T06:18:44;13;;;29;;
54458;SDS011;40368;49.350;8.152;2024-02-14T06:19:44;14;;;27;;
54458;SDS011;40368;49.350;8.152;2024-02-14T06:20:43;13;;;38;;
54458;SDS011;40368;49.350;8.152;2024-02-14T06:21:44;13;;;49;;
54458;SDS011;40368;49.350;8.152;2024-02-14T06:22:43;12;;;31;;
54458;SDS011;40368;49.350;8.152;2024-02-14T06:23:43;13;;;40;;
54458;SDS011;40368;49.350;8.152;2024-02-14T06:24:44;17;;;30;;